Time;durP1;ratioP1;P1;durP2;ratioP2;P2;SDS_P1;SDS_P2;PMS_P1;PMS_P2;Temp;Humidity;BMP_temperature;BMP_pressure;BME280_temperature;BME280_humidity;BME280_pressure;Samples;Min_cycle;Max_cycle;Signal;HPM_P1;HPM_P2
2022/07/12 00:00:16;;;;;;;;;;;;;;;17.25;56.86035;102498.6;;;;-81
2022/07/12 00:05:00;;;;;;;;;;;;;;;17.2;56.91016;102502.5;;;;-83
2022/07/12 00:05:28;;;;;;;2.1;1.3;;;;;;;;;;;;;-83
2022/07/12 00:10:27;;;;;;;;;;;;;;;17.14;57.09375;102502.3;;;;-82
2022/07/12 00:15:15;;;;;;;;;;;;;;;17.08;57.04297;102500.7;;;;-82
2022/07/12 00:20:16;;;;;;;;;;;;;;;17.04;57.15039;102500.6;;;;-82
2022/07/12 00:25:03;;;;;;;;;;;;;;;17.03;57.2832;102504.6;;;;-81
2022/07/12 00:30:21;;;;;;;;;;;;;;;17.31;57.12793;102506.1;;;;-79
2022/07/12 00:32:31;;;;;;;;;;;;;;;17.32;56.91504;102513.8;;;;-81
2022/07/12 00:35:14;;;;;;;1.9;1.3;;;;;;;;;;;;;-83
2022/07/12 00:37:41;;;;;;;;;;;;;;;16.93;57.42969;102517.4;;;;-82
2022/07/12 00:42:32;;;;;;;;;;;;;;;16.89;57.41406;102510.9;;;;-83
2022/07/12 00:47:37;;;;;;;;;;;;;;;16.84;57.40625;102509.8;;;;-80
2022/07/12 00:52:21;;;;;;;;;;;;;;;16.82;57.4043;102514.5;;;;-82
2022/07/12 00:57:27;;;;;;;;;;;;;;;16.79;57.50098;102513.7;;;;-82
2022/07/12 01:02:30;;;;;;;;;;;;;;;16.75;58.76172;102510.5;;;;-82
2022/07/12 01:05:17;;;;;;;2.6;1.3;;;;;;;;;;;;;-82
2022/07/12 01:07:30;;;;;;;;;;;;;;;16.73;59.08594;102508.7;;;;-83
2022/07/12 01:12:41;;;;;;;;;;;;;;;16.7;59.09473;102504.1;;;;-83
2022/07/12 01:17:26;;;;;;;;;;;;;;;16.69;59.76953;102495.6;;;;-82
2022/07/12 01:22:26;;;;;;;;;;;;;;;16.68;59.66797;102486.2;;;;-83
2022/07/12 01:33:00;;;;;;;;;;;;;;;16.92;59.46191;102476;;;;-82
2022/07/12 01:46:36;;;;;;;;;;;;;;;16.95;60.04395;102502.4;;;;-80
2022/07/12 01:47:49;;;;;;;;;;;;;;;16.87;59.66992;102493.9;;;;-82
2022/07/12 01:51:03;;;;;;;;;;;;;;;16.6;60.48145;102502.7;;;;-83
2022/07/12 01:56:14;;;;;;;;;;;;;;;16.59;60.23047;102511.5;;;;-82
2022/07/12 02:01:11;;;;;;;;;;;;;;;16.55;60.8457;102507.2;;;;-83
2022/07/12 02:05:20;;;;;;;2.6;1.5;;;;;;;;;;;;;-83
2022/07/12 02:06:00;;;;;;;;;;;;;;;16.52;60.1416;102501.1;;;;-84
2022/07/12 02:11:25;;;;;;;;;;;;;;;16.48;60.27148;102495.9;;;;-81
2022/07/12 02:21:10;;;;;;;;;;;;;;;16.64;59.83008;102483.2;;;;-76
2022/07/12 02:35:57;;;;;;;;;;;;;;;;;;;;;
2022/07/12 02:39:28;;;;;;;;;;;;;;;16.35;60.78418;102499.8;;;;-81
2022/07/12 02:44:21;;;;;;;;;;;;;;;16.33;60.34082;102498.6;;;;-82
2022/07/12 02:49:25;;;;;;;;;;;;;;;16.29;60.17773;102503.4;;;;-83
2022/07/12 02:54:26;;;;;;;;;;;;;;;16.25;60.39844;102515.3;;;;-83
2022/07/12 02:59:19;;;;;;;;;;;;;;;16.23;60.21582;102512.6;;;;-82
2022/07/12 03:04:18;;;;;;;;;;;;;;;16.18;60.36719;102503.4;;;;-83
2022/07/12 03:05:19;;;;;;;2.4;1.5;;;;;;;;;;;;;-82
2022/07/12 03:09:19;;;;;;;;;;;;;;;16.15;60.32813;102499.7;;;;-83
2022/07/12 03:14:20;;;;;;;;;;;;;;;16.11;60.9082;102499.3;;;;-83
2022/07/12 03:19:30;;;;;;;;;;;;;;;16.29;60.60645;102489.9;;;;-79
2022/07/12 03:23:55;;;;;;;;;;;;;;;16.08;61.53613;102497.7;;;;-82
2022/07/12 03:35:27;;;;;;;2.8;1.6;;;;;;;;;;;;;-78
2022/07/12 03:36:59;;;;;;;;;;;;;;;16.24;61.51367;102502.4;;;;-83
2022/07/12 03:40:43;;;;;;;;;;;;;;;16.02;61.86621;102505.7;;;;-83
2022/07/12 03:45:43;;;;;;;;;;;;;;;16.02;62.02441;102502.5;;;;-85
2022/07/12 03:50:56;;;;;;;;;;;;;;;16;61.85254;102505;;;;-86
2022/07/12 03:55:48;;;;;;;;;;;;;;;15.99;61.83887;102508.2;;;;-86
2022/07/12 04:00:40;;;;;;;;;;;;;;;15.97;61.87109;102507;;;;-84
2022/07/12 04:05:37;;;;;;;2.2;1.5;;;;;;;;;;;;;-84
2022/07/12 04:05:59;;;;;;;;;;;;;;;15.86;61.61816;102482.4;;;;-83
2022/07/12 04:10:50;;;;;;;;;;;;;;;15.98;62.25391;102504.4;;;;-85
2022/07/12 04:15:45;;;;;;;;;;;;;;;15.99;62.16699;102514.3;;;;-84
2022/07/12 04:20:54;;;;;;;;;;;;;;;;;;;;;
2022/07/12 04:25:37;;;;;;;;;;;;;;;16.03;61.56348;102513.7;;;;-84
2022/07/12 04:30:36;;;;;;;;;;;;;;;16.04;61.55371;102520.1;;;;-85
2022/07/12 04:35:34;;;;;;;2;1.4;;;;;;;;;;;;;-83
2022/07/12 04:35:53;;;;;;;;;;;;;;;15.96;61.37305;102503.3;;;;-83
2022/07/12 04:40:39;;;;;;;;;;;;;;;16.08;62.10059;102508.1;;;;-82
2022/07/12 04:50:47;;;;;;;;;;;;;;;16.13;62.30957;102514.7;;;;-84
2022/07/12 04:55:38;;;;;;;;;;;;;;;16.16;62.12207;102523.8;;;;-83
2022/07/12 05:00:49;;;;;;;;;;;;;;;16.19;62.2832;102525.3;;;;-84
2022/07/12 05:05:39;;;;;;;2.7;1.9;;;;;;;;;;;;;-85
2022/07/12 05:06:14;;;;;;;;;;;;;;;16.16;62.56152;102513.5;;;;-84
2022/07/12 05:11:01;;;;;;;;;;;;;;;16.26;62.21484;102524.9;;;;-82
2022/07/12 05:15:46;;;;;;;;;;;;;;;16.3;62.35645;102526.1;;;;-82
2022/07/12 05:20:39;;;;;;;;;;;;;;;16.36;62.48828;102529.1;;;;-83
2022/07/12 05:25:55;;;;;;;;;;;;;;;16.46;62.44629;102529.3;;;;-84
2022/07/12 05:30:42;;;;;;;;;;;;;;;16.7;63.28027;102526.6;;;;-83
2022/07/12 05:36:36;;;;;;;;;;;;;;;17.27;61.95996;102519.7;;;;-83
2022/07/12 05:40:49;;;;;;;;;;;;;;;17.83;60.89746;102516;;;;-83
2022/07/12 05:47:07;;;;;;;;;;;;;;;19.05;58.66992;102515.3;;;;-82
2022/07/12 05:50:26;;;;;;;;;;;;;;;19.21;58.54199;102521.9;;;;-84
2022/07/12 05:55:33;;;;;;;;;;;;;;;19.91;57.44043;102529.7;;;;-85
2022/07/12 06:00:41;;;;;;;;;;;;;;;20.58;56.6709;102537.3;;;;-84
2022/07/12 06:05:37;;;;;;;;;;;;;;;21.17;55.91309;102531.4;;;;-83
2022/07/12 06:06:06;;;;;;;3.1;2.1;;;;;;;;;;;;;-83
2022/07/12 06:10:34;;;;;;;;;;;;;;;21.43;55.45605;102525;;;;-84
2022/07/12 06:15:33;;;;;;;;;;;;;;;21.55;55.40039;102532.2;;;;-85
2022/07/12 06:25:37;;;;;;;;;;;;;;;21.47;55.98438;102538.9;;;;-84
2022/07/12 06:36:00;;;;;;;;;;;;;;;21.51;56.21875;102539.1;;;;-81
2022/07/12 06:40:44;;;;;;;;;;;;;;;21.17;56.89648;102541.8;;;;-81
2022/07/12 06:45:43;;;;;;;;;;;;;;;21.18;57.06836;102545.6;;;;-83
2022/07/12 06:50:53;;;;;;;;;;;;;;;21.32;57.13184;102542.1;;;;-81
2022/07/12 06:55:40;;;;;;;;;;;;;;;21.53;56.77051;102533.6;;;;-82
2022/07/12 07:05:46;;;;;;;;;;;;;;;22.36;56.06348;102527.1;;;;-81
2022/07/12 07:06:30;;;;;;;5.1;3.1;;;;;;;;;;;;;-81
2022/07/12 07:15:37;;;;;;;;;;;;;;;23.01;55.13477;102526.2;;;;-83
2022/07/12 07:21:05;;;;;;;;;;;;;;;23.46;54.35156;102517.8;;;;-82
2022/07/12 07:25:23;;;;;;;;;;;;;;;23.77;53.52637;102515.3;;;;-80
2022/07/12 07:28:22;;;;;;;;;;;;;;;23.68;53.72461;102519.2;;;;-82
2022/07/12 07:33:21;;;;;;;;;;;;;;;23.84;53.37402;102523.1;;;;-83
2022/07/12 07:35:39;;;;;;;5;2.7;;;;;;;;;;;;;-82
2022/07/12 07:38:23;;;;;;;;;;;;;;;23.88;53.29883;102523.4;;;;-81
2022/07/12 07:43:24;;;;;;;;;;;;;;;24.01;52.87695;102522.7;;;;-82
2022/07/12 07:48:25;;;;;;;;;;;;;;;24.16;52.92969;102519.9;;;;-81
2022/07/12 07:53:23;;;;;;;;;;;;;;;24.33;52.12109;102523;;;;-83
2022/07/12 07:58:20;;;;;;;;;;;;;;;24.58;51.73535;102522;;;;-81
2022/07/12 08:03:25;;;;;;;;;;;;;;;24.92;50.95605;102535.9;;;;-81
2022/07/12 08:05:43;;;;;;;4.6;2.3;;;;;;;;;;;;;-83
2022/07/12 08:08:23;;;;;;;;;;;;;;;25.11;50.75781;102541.3;;;;-81
2022/07/12 08:13:26;;;;;;;;;;;;;;;25.47;50.10645;102530.9;;;;-82
2022/07/12 08:18:23;;;;;;;;;;;;;;;25.81;49.42676;102529.3;;;;-82
2022/07/12 08:23:24;;;;;;;;;;;;;;;26.3;48.55469;102527.5;;;;-83
2022/07/12 08:28:23;;;;;;;;;;;;;;;26.71;47.62402;102525.5;;;;-81
2022/07/12 08:33:22;;;;;;;;;;;;;;;27.09;46.91113;102526.6;;;;-83
2022/07/12 08:35:45;;;;;;;4.8;2.5;;;;;;;;;;;;;-83
2022/07/12 08:38:22;;;;;;;;;;;;;;;27.48;46.38184;102529.6;;;;-82
2022/07/12 08:43:21;;;;;;;;;;;;;;;27.88;45.99414;102526.3;;;;-82
2022/07/12 08:48:28;;;;;;;;;;;;;;;28.24;44.88965;102516.3;;;;-83
2022/07/12 08:53:29;;;;;;;;;;;;;;;28.56;44.57227;102518.4;;;;-83
2022/07/12 08:59:24;;;;;;;;;;;;;;;29.27;43.49805;102526.1;;;;-83
2022/07/12 09:03:04;;;;;;;;;;;;;;;29.12;43.51953;102526.2;;;;-82
2022/07/12 09:06:03;;;;;;;4.5;2.2;;;;;;;;;;;;;-82
2022/07/12 09:08:21;;;;;;;;;;;;;;;29.35;43.40137;102529.1;;;;-83
2022/07/12 09:13:13;;;;;;;;;;;;;;;29.65;43.04395;102522.8;;;;-84
2022/07/12 09:18:13;;;;;;;;;;;;;;;30.01;42.36523;102520.6;;;;-83
2022/07/12 09:23:11;;;;;;;;;;;;;;;30.36;41.52051;102521.1;;;;-82
2022/07/12 09:36:17;;;;;;;4.9;2.5;;;;;;;;;;;;;-82
2022/07/12 09:38:25;;;;;;;;;;;;;;;31.39;40.10059;102518.6;;;;-82
2022/07/12 09:48:20;;;;;;;;;;;;;;;31.98;38.78906;102509.4;;;;-83
2022/07/12 09:53:21;;;;;;;;;;;;;;;32.22;38.64551;102518.3;;;;-82
2022/07/12 09:58:18;;;;;;;;;;;;;;;32.48;37.91309;102517;;;;-83
2022/07/12 10:03:11;;;;;;;;;;;;;;;33.03;37.16895;102517.1;;;;-77
2022/07/12 10:05:57;;;;;;;4.3;2.3;;;;;;;;;;;;;-79
2022/07/12 10:06:19;;;;;;;;;;;;;;;32.91;36.92383;102519.4;;;;-78
2022/07/12 10:11:17;;;;;;;;;;;;;;;33.17;37.25098;102529.1;;;;-78
2022/07/12 10:16:18;;;;;;;;;;;;;;;33.47;36.76855;102529.8;;;;-79
2022/07/12 10:21:25;;;;;;;;;;;;;;;33.69;37.01074;102533.6;;;;-78
2022/07/12 10:26:31;;;;;;;;;;;;;;;33.86;36.84668;102536.5;;;;-80
2022/07/12 10:31:17;;;;;;;;;;;;;;;34.03;35.80957;102531.4;;;;-75
2022/07/12 10:36:07;;;;;;;4.9;2.1;;;;;;;;;;;;;-76
2022/07/12 10:36:23;;;;;;;;;;;;;;;34.18;35.68945;102531.6;;;;-76
2022/07/12 10:41:25;;;;;;;;;;;;;;;34.4;35.60156;102532.4;;;;-78
2022/07/12 10:46:27;;;;;;;;;;;;;;;34.52;35.68164;102534.8;;;;-77
2022/07/12 10:51:23;;;;;;;;;;;;;;;34.75;35.80566;102525.5;;;;-76
2022/07/12 10:56:21;;;;;;;;;;;;;;;34.93;35.85547;102523.5;;;;-77
2022/07/12 11:01:17;;;;;;;;;;;;;;;35.04;36.70508;102521.4;;;;-78
2022/07/12 11:06:09;;;;;;;3.6;1.7;;;;;;;;;;;;;-75
2022/07/12 11:06:18;;;;;;;;;;;;;;;35.15;36.75;102528.2;;;;-76
2022/07/12 11:11:16;;;;;;;;;;;;;;;35.34;36.90625;102531;;;;-78
2022/07/12 11:16:17;;;;;;;;;;;;;;;35.52;37.0752;102525.7;;;;-76
2022/07/12 11:21:17;;;;;;;;;;;;;;;35.67;35.88965;102518.2;;;;-77
2022/07/12 11:26:17;;;;;;;;;;;;;;;35.78;35.95801;102510.9;;;;-77
2022/07/12 11:31:17;;;;;;;;;;;;;;;35.87;36.28418;102509.9;;;;-76
2022/07/12 11:36:12;;;;;;;4.4;1.8;;;;;;;;;;;;;-77
2022/07/12 11:36:22;;;;;;;;;;;;;;;35.97;35.94824;102505.6;;;;-76
2022/07/12 11:41:19;;;;;;;;;;;;;;;36.15;36.02148;102508.6;;;;-77
2022/07/12 11:46:17;;;;;;;;;;;;;;;36.33;35.42969;102498.1;;;;-77
2022/07/12 11:51:17;;;;;;;;;;;;;;;36.48;35.42969;102496.8;;;;-77
2022/07/12 11:56:17;;;;;;;;;;;;;;;36.65;34.89551;102498.3;;;;-76
2022/07/12 12:01:19;;;;;;;;;;;;;;;36.72;35.64941;102486.7;;;;-76
2022/07/12 12:06:17;;;;;;;;;;;;;;;36.75;35.33105;102483.9;;;;-76
2022/07/12 12:06:26;;;;;;;4.2;1.8;;;;;;;;;;;;;-76
2022/07/12 12:11:16;;;;;;;;;;;;;;;36.65;35.69238;102477.1;;;;-77
2022/07/12 12:16:16;;;;;;;;;;;;;;;36.69;35.79004;102473.7;;;;-77
2022/07/12 12:21:17;;;;;;;;;;;;;;;36.78;35.92871;102476.5;;;;-78
2022/07/12 12:26:20;;;;;;;;;;;;;;;36.9;36.41406;102476;;;;-77
2022/07/12 12:31:22;;;;;;;;;;;;;;;37.03;35.93652;102471.4;;;;-76
2022/07/12 12:36:24;;;;;;;;;;;;;;;37.13;35.43262;102478.9;;;;-77
2022/07/12 12:36:40;;;;;;;3.3;1.4;;;;;;;;;;;;;-77
2022/07/12 12:41:17;;;;;;;;;;;;;;;37.17;34.87598;102477.6;;;;-77
2022/07/12 12:46:16;;;;;;;;;;;;;;;37.08;35.58301;102479.1;;;;-76
2022/07/12 12:51:18;;;;;;;;;;;;;;;36.95;35.78711;102470.5;;;;-78
2022/07/12 12:56:17;;;;;;;;;;;;;;;36.78;34.46582;102461.8;;;;-77
2022/07/12 13:01:16;;;;;;;;;;;;;;;36.59;34.52246;102472.1;;;;-76
2022/07/12 13:06:16;;;;;;;;;;;;;;;36.4;33.92578;102471.7;;;;-78
2022/07/12 13:06:30;;;;;;;3;1.5;;;;;;;;;;;;;-78
2022/07/12 13:11:23;;;;;;;;;;;;;;;36.22;33.90137;102468.4;;;;-77
2022/07/12 13:16:16;;;;;;;;;;;;;;;36.09;34.36719;102463;;;;-77
2022/07/12 13:21:17;;;;;;;;;;;;;;;36;34.5498;102472.4;;;;-77
2022/07/12 13:26:16;;;;;;;;;;;;;;;35.95;34.34375;102466.9;;;;-78
2022/07/12 13:31:16;;;;;;;;;;;;;;;35.86;33.16211;102466.6;;;;-77
2022/07/12 13:36:17;;;;;;;;;;;;;;;35.7;33.49512;102464.9;;;;-77
2022/07/12 13:36:36;;;;;;;3.9;2.2;;;;;;;;;;;;;-77
2022/07/12 13:41:17;;;;;;;;;;;;;;;35.55;33.68555;102467.6;;;;-77
2022/07/12 13:46:16;;;;;;;;;;;;;;;35.41;33.98438;102472.5;;;;-77
2022/07/12 13:51:17;;;;;;;;;;;;;;;35.29;34.2002;102475.5;;;;-78
2022/07/12 13:56:16;;;;;;;;;;;;;;;35.16;34.54688;102470.6;;;;-77
2022/07/12 14:01:17;;;;;;;;;;;;;;;35.07;35.02539;102469.8;;;;-78
2022/07/12 14:06:16;;;;;;;;;;;;;;;35.04;35.30664;102469.7;;;;-75
2022/07/12 14:06:43;;;;;;;4.6;2.7;;;;;;;;;;;;;-76
2022/07/12 14:11:16;;;;;;;;;;;;;;;34.91;35.30957;102473.3;;;;-77
2022/07/12 14:16:18;;;;;;;;;;;;;;;34.69;34.65332;102474.5;;;;-77
2022/07/12 14:21:16;;;;;;;;;;;;;;;34.38;34.88965;102474.3;;;;-77
2022/07/12 14:26:16;;;;;;;;;;;;;;;34.04;35.3125;102464.8;;;;-76
2022/07/12 14:31:16;;;;;;;;;;;;;;;33.68;35.75781;102474.8;;;;-77
2022/07/12 14:36:17;;;;;;;;;;;;;;;33.34;36.14355;102454.5;;;;-77
2022/07/12 14:36:47;;;;;;;6;2.7;;;;;;;;;;;;;-77
2022/07/12 14:41:16;;;;;;;;;;;;;;;33.08;36.47754;102444.6;;;;-79
2022/07/12 14:46:16;;;;;;;;;;;;;;;32.93;36.71289;102434.2;;;;-77
2022/07/12 14:51:17;;;;;;;;;;;;;;;32.85;36.9541;102446.8;;;;-78
2022/07/12 14:56:16;;;;;;;;;;;;;;;32.84;37.04785;102448.6;;;;-72
2022/07/12 15:01:16;;;;;;;;;;;;;;;32.85;37.11914;102448.8;;;;-73
2022/07/12 15:06:17;;;;;;;;;;;;;;;32.86;37.02637;102444.4;;;;-76
2022/07/12 15:06:52;;;;;;;6;3.4;;;;;;;;;;;;;-76
2022/07/12 15:11:16;;;;;;;;;;;;;;;32.83;36.94141;102434.4;;;;-78
2022/07/12 15:16:16;;;;;;;;;;;;;;;32.77;36.9834;102435.8;;;;-76
2022/07/12 15:21:18;;;;;;;;;;;;;;;32.72;37.08496;102427.4;;;;-77
2022/07/12 15:26:16;;;;;;;;;;;;;;;32.61;37.11133;102427.3;;;;-73
2022/07/12 15:31:16;;;;;;;;;;;;;;;32.5;37.20898;102422.1;;;;-74
2022/07/12 15:36:17;;;;;;;;;;;;;;;32.4;37.30566;102419.3;;;;-73
2022/07/12 15:36:58;;;;;;;4.9;2.9;;;;;;;;;;;;;-74
2022/07/12 15:41:17;;;;;;;;;;;;;;;32.28;37.4375;102415.6;;;;-74
2022/07/12 15:46:17;;;;;;;;;;;;;;;32.18;37.53516;102407.9;;;;-78
2022/07/12 15:51:18;;;;;;;;;;;;;;;32.06;37.67871;102408;;;;-79
2022/07/12 15:56:16;;;;;;;;;;;;;;;31.95;37.77539;102403.8;;;;-77
2022/07/12 16:01:17;;;;;;;;;;;;;;;31.84;37.89551;102399.3;;;;-76
2022/07/12 16:06:16;;;;;;;;;;;;;;;31.73;38.07422;102394.3;;;;-77
2022/07/12 16:07:03;;;;;;;4.3;2.9;;;;;;;;;;;;;-78
2022/07/12 16:11:17;;;;;;;;;;;;;;;31.6;38.06445;102389.6;;;;-72
2022/07/12 16:16:16;;;;;;;;;;;;;;;31.44;38.2959;102384.8;;;;-75
2022/07/12 16:21:17;;;;;;;;;;;;;;;31.26;38.43457;102381.5;;;;-75
2022/07/12 16:26:17;;;;;;;;;;;;;;;31.07;38.67676;102375.8;;;;-75
2022/07/12 16:31:16;;;;;;;;;;;;;;;30.89;38.80176;102369.7;;;;-75
2022/07/12 16:36:16;;;;;;;;;;;;;;;30.71;39.10352;102358.6;;;;-74
2022/07/12 16:37:08;;;;;;;4.2;2.7;;;;;;;;;;;;;-76
2022/07/12 16:41:16;;;;;;;;;;;;;;;30.54;39.12402;102346.1;;;;-75
2022/07/12 16:46:16;;;;;;;;;;;;;;;30.37;39.20215;102345.1;;;;-74
2022/07/12 16:51:26;;;;;;;;;;;;;;;30.18;39.3623;102348.1;;;;-74
2022/07/12 16:56:17;;;;;;;;;;;;;;;30.06;39.62012;102345.2;;;;-77
2022/07/12 17:01:17;;;;;;;;;;;;;;;29.94;39.83301;102340.2;;;;-78
2022/07/12 17:06:17;;;;;;;;;;;;;;;29.84;40.02246;102328.7;;;;-80
2022/07/12 17:07:14;;;;;;;4.2;2.6;;;;;;;;;;;;;-77
2022/07/12 17:11:17;;;;;;;;;;;;;;;29.77;39.95801;102318.4;;;;-72
2022/07/12 17:16:16;;;;;;;;;;;;;;;29.73;40.09473;102323.6;;;;-78
2022/07/12 17:21:17;;;;;;;;;;;;;;;29.72;40.08203;102337;;;;-80
2022/07/12 17:26:16;;;;;;;;;;;;;;;29.69;40.16211;102349.1;;;;-78
2022/07/12 17:31:17;;;;;;;;;;;;;;;29.64;40.28516;102360.2;;;;-78
2022/07/12 17:36:17;;;;;;;;;;;;;;;29.58;40.37402;102338.5;;;;-77
2022/07/12 17:37:18;;;;;;;4.2;2.7;;;;;;;;;;;;;-78
2022/07/12 17:41:17;;;;;;;;;;;;;;;29.51;40.44922;102339.7;;;;-79
2022/07/12 17:46:17;;;;;;;;;;;;;;;29.43;40.55859;102347.1;;;;-77
2022/07/12 17:51:17;;;;;;;;;;;;;;;29.34;40.72656;102348.9;;;;-78
2022/07/12 17:56:16;;;;;;;;;;;;;;;29.23;40.83398;102341.9;;;;-78
2022/07/12 18:01:18;;;;;;;;;;;;;;;29.1;40.91406;102327.9;;;;-78
2022/07/12 18:06:17;;;;;;;;;;;;;;;28.98;40.6582;102326.4;;;;-76
2022/07/12 18:07:22;;;;;;;3.8;2.6;;;;;;;;;;;;;-77
2022/07/12 18:16:19;;;;;;;;;;;;;;;28.67;40.71289;102314.2;;;;-78
2022/07/12 18:21:16;;;;;;;;;;;;;;;28.53;40.74609;102315.1;;;;-77
2022/07/12 18:26:17;;;;;;;;;;;;;;;28.38;40.74512;102301.8;;;;-77
2022/07/12 18:31:17;;;;;;;;;;;;;;;28.23;40.68457;102289.2;;;;-77
2022/07/12 18:36:17;;;;;;;;;;;;;;;28.08;40.88086;102295.7;;;;-77
2022/07/12 18:37:27;;;;;;;4.1;2.9;;;;;;;;;;;;;-77
2022/07/12 18:41:17;;;;;;;;;;;;;;;27.92;40.93652;102289;;;;-77
2022/07/12 18:46:18;;;;;;;;;;;;;;;27.76;41.14258;102283.8;;;;-78
2022/07/12 18:51:17;;;;;;;;;;;;;;;27.58;41.19629;102276;;;;-78
2022/07/12 18:56:16;;;;;;;;;;;;;;;27.43;41.33398;102267.8;;;;-76
2022/07/12 19:01:16;;;;;;;;;;;;;;;27.27;41.56348;102261.3;;;;-78
2022/07/12 19:06:16;;;;;;;;;;;;;;;27.11;41.64258;102259.7;;;;-77
2022/07/12 19:07:31;;;;;;;4.8;3.4;;;;;;;;;;;;;-77
2022/07/12 19:11:16;;;;;;;;;;;;;;;26.99;41.99121;102263.5;;;;-77
2022/07/12 19:16:17;;;;;;;;;;;;;;;26.83;42.15039;102256.3;;;;-78
2022/07/12 19:21:16;;;;;;;;;;;;;;;26.67;42.49512;102251.2;;;;-77
2022/07/12 19:26:17;;;;;;;;;;;;;;;26.5;42.95508;102259.7;;;;-78
2022/07/12 19:31:16;;;;;;;;;;;;;;;26.33;43.19336;102270.8;;;;-77
2022/07/12 19:36:17;;;;;;;;;;;;;;;26.16;43.66309;102259.3;;;;-77
2022/07/12 19:37:34;;;;;;;5.2;3.4;;;;;;;;;;;;;-78
2022/07/12 19:41:16;;;;;;;;;;;;;;;26.04;43.83789;102250.7;;;;-77
2022/07/12 19:46:16;;;;;;;;;;;;;;;25.91;43.97559;102263;;;;-78
2022/07/12 19:51:17;;;;;;;;;;;;;;;25.78;44.26367;102265.2;;;;-78
2022/07/12 19:56:16;;;;;;;;;;;;;;;25.66;44.32129;102260.7;;;;-77
2022/07/12 20:01:17;;;;;;;;;;;;;;;25.53;44.91016;102262.4;;;;-79
2022/07/12 20:06:16;;;;;;;;;;;;;;;25.4;44.94434;102269.8;;;;-78
2022/07/12 20:07:38;;;;;;;5.8;3.9;;;;;;;;;;;;;-76
2022/07/12 20:11:16;;;;;;;;;;;;;;;25.27;45.04688;102267.8;;;;-77
2022/07/12 20:16:16;;;;;;;;;;;;;;;25.15;45.80859;102269.2;;;;-77
2022/07/12 20:21:17;;;;;;;;;;;;;;;25.03;45.80859;102274.1;;;;-77
2022/07/12 20:26:16;;;;;;;;;;;;;;;24.92;46.1543;102279.8;;;;-78
2022/07/12 20:31:16;;;;;;;;;;;;;;;24.82;46.13281;102274.7;;;;-77
2022/07/12 20:36:16;;;;;;;;;;;;;;;24.7;46.59473;102268.7;;;;-77
2022/07/12 20:37:42;;;;;;;6.8;4.3;;;;;;;;;;;;;-78
2022/07/12 20:41:16;;;;;;;;;;;;;;;24.6;46.60742;102257.2;;;;-78
2022/07/12 20:46:16;;;;;;;;;;;;;;;24.52;46.79395;102257.4;;;;-77
2022/07/12 20:51:16;;;;;;;;;;;;;;;24.43;47.41992;102248.7;;;;-76
2022/07/12 21:19:09;;;;;;;;;;;;;;;23.97;48.76465;102216.1;;;;-83
2022/07/12 21:24:10;;;;;;;;;;;;;;;23.9;48.71094;102213.2;;;;-83
2022/07/12 21:29:07;;;;;;;;;;;;;;;23.84;48.76172;102219.1;;;;-83
2022/07/12 21:34:17;;;;;;;;;;;;;;;23.77;48.98438;102221;;;;-82
2022/07/12 21:37:53;;;;;;;6.3;4.7;;;;;;;;;;;;;-84
2022/07/12 21:39:07;;;;;;;;;;;;;;;23.71;49.27734;102216;;;;-85
2022/07/12 21:44:15;;;;;;;;;;;;;;;23.65;49.50098;102214.8;;;;-82
2022/07/12 21:49:06;;;;;;;;;;;;;;;23.58;49.51563;102218.8;;;;-84
2022/07/12 21:54:17;;;;;;;;;;;;;;;23.53;49.86816;102217.2;;;;-82
2022/07/12 21:59:15;;;;;;;;;;;;;;;23.48;49.72363;102213.3;;;;-84
2022/07/12 22:04:07;;;;;;;;;;;;;;;23.43;49.53516;102219.5;;;;-82
2022/07/12 22:07:52;;;;;;;7.7;4.7;;;;;;;;;;;;;-83
2022/07/12 22:09:10;;;;;;;;;;;;;;;23.36;49.3877;102207.2;;;;-84
2022/07/12 22:14:08;;;;;;;;;;;;;;;23.3;49.47266;102198.9;;;;-84
2022/07/12 22:19:07;;;;;;;;;;;;;;;23.21;49.54492;102200.8;;;;-83
2022/07/12 22:24:11;;;;;;;;;;;;;;;23.14;49.87012;102199.7;;;;-84
2022/07/12 22:29:10;;;;;;;;;;;;;;;23.08;49.93164;102198.6;;;;-83
2022/07/12 22:34:08;;;;;;;;;;;;;;;23;50.00391;102203.1;;;;-83
2022/07/12 22:37:56;;;;;;;7.3;4.6;;;;;;;;;;;;;-83
2022/07/12 22:39:05;;;;;;;;;;;;;;;22.94;50.33008;102206.4;;;;-84
2022/07/12 22:44:11;;;;;;;;;;;;;;;22.88;50.21973;102204.1;;;;-86
2022/07/12 22:49:07;;;;;;;;;;;;;;;22.82;50.31641;102195;;;;-84
2022/07/12 22:54:12;;;;;;;;;;;;;;;22.77;51.15918;102192.6;;;;-85
2022/07/12 22:59:07;;;;;;;;;;;;;;;22.73;50.87988;102199.7;;;;-84
2022/07/12 23:04:08;;;;;;;;;;;;;;;22.69;51.12695;102200.8;;;;-82
2022/07/12 23:08:06;;;;;;;5.1;4;;;;;;;;;;;;;-84
2022/07/12 23:09:05;;;;;;;;;;;;;;;22.66;51.32031;102171.9;;;;-84
2022/07/12 23:14:13;;;;;;;;;;;;;;;22.63;51.30566;102162.7;;;;-83
2022/07/12 23:19:13;;;;;;;;;;;;;;;22.62;51.45313;102152.8;;;;-83
2022/07/12 23:24:16;;;;;;;;;;;;;;;22.61;51.15332;102158.1;;;;-83
2022/07/12 23:29:06;;;;;;;;;;;;;;;22.6;51.12793;102147;;;;-85
2022/07/12 23:34:17;;;;;;;;;;;;;;;22.58;51.18457;102134;;;;-84
2022/07/12 23:38:04;;;;;;;5.7;3.6;;;;;;;;;;;;;-85
2022/07/12 23:39:20;;;;;;;;;;;;;;;22.57;51.22852;102124.3;;;;-85
2022/07/12 23:44:18;;;;;;;;;;;;;;;22.57;51.09082;102121.7;;;;-85
2022/07/12 23:49:10;;;;;;;;;;;;;;;22.55;50.90625;102116.3;;;;-83
2022/07/12 23:54:11;;;;;;;;;;;;;;;22.53;50.87988;102113.3;;;;-83
2022/07/12 23:59:11;;;;;;;;;;;;;;;22.52;50.92383;102107.6;;;;-84
